sensor_id;sensor_type;location;lat;lon;timestamp;P1;durP1;ratioP1;P2;durP2;ratioP2
65018;SDS011;66069;51.164;-114.452;2024-03-02T00:01:16;1.67;;;0.50;;
65018;SDS011;66069;51.164;-114.452;2024-03-02T00:03:42;0.80;;;0.57;;
65018;SDS011;66069;51.164;-114.452;2024-03-02T00:06:09;2.15;;;0.50;;
65018;SDS011;66069;51.164;-114.452;2024-03-02T00:08:36;1.75;;;0.70;;
65018;SDS011;66069;51.164;-114.452;2024-03-02T00:11:02;0.57;;;0.32;;
65018;SDS011;66069;51.164;-114.452;2024-03-02T00:13:29;1.27;;;0.50;;
65018;SDS011;66069;51.164;-114.452;2024-03-02T00:15:59;0.80;;;0.40;;
65018;SDS011;66069;51.164;-114.452;2024-03-02T00:18:26;1.00;;;0.50;;
65018;SDS011;66069;51.164;-114.452;2024-03-02T00:20:55;1.40;;;0.50;;
65018;SDS011;66069;51.164;-114.452;2024-03-02T00:23:22;0.40;;;0.30;;
65018;SDS011;66069;51.164;-114.452;2024-03-02T00:25:52;1.20;;;0.40;;
65018;SDS011;66069;51.164;-114.452;2024-03-02T00:28:22;2.03;;;0.75;;
65018;SDS011;66069;51.164;-114.452;2024-03-02T00:30:57;0.90;;;0.50;;
65018;SDS011;66069;51.164;-114.452;2024-03-02T00:33:36;1.63;;;0.70;;
65018;SDS011;66069;51.164;-114.452;2024-03-02T00:36:16;2.13;;;0.60;;
65018;SDS011;66069;51.164;-114.452;2024-03-02T00:38:48;0.80;;;0.47;;
65018;SDS011;66069;51.164;-114.452;2024-03-02T00:41:26;1.15;;;0.47;;
65018;SDS011;66069;51.164;-114.452;2024-03-02T00:44:01;0.82;;;0.40;;
65018;SDS011;66069;51.164;-114.452;2024-03-02T00:49:02;2.22;;;0.55;;
65018;SDS011;66069;51.164;-114.452;2024-03-02T00:51:32;1.20;;;0.60;;
65018;SDS011;66069;51.164;-114.452;2024-03-02T00:54:09;1.45;;;0.65;;
65018;SDS011;66069;51.164;-114.452;2024-03-02T00:56:36;1.08;;;0.50;;
65018;SDS011;66069;51.164;-114.452;2024-03-02T00:59:02;0.88;;;0.40;;
65018;SDS011;66069;51.164;-114.452;2024-03-02T01:01:29;1.02;;;0.55;;
65018;SDS011;66069;51.164;-114.452;2024-03-02T01:03:55;1.13;;;0.50;;
65018;SDS011;66069;51.164;-114.452;2024-03-02T01:06:21;1.27;;;0.50;;
65018;SDS011;66069;51.164;-114.452;2024-03-02T01:08:47;1.15;;;0.50;;
65018;SDS011;66069;51.164;-114.452;2024-03-02T01:11:16;1.05;;;0.57;;
65018;SDS011;66069;51.164;-114.452;2024-03-02T01:13:43;1.58;;;0.50;;
65018;SDS011;66069;51.164;-114.452;2024-03-02T01:16:11;0.98;;;0.50;;
65018;SDS011;66069;51.164;-114.452;2024-03-02T01:18:37;0.88;;;0.50;;
65018;SDS011;66069;51.164;-114.452;2024-03-02T01:21:03;0.85;;;0.40;;
65018;SDS011;66069;51.164;-114.452;2024-03-02T01:23:30;0.95;;;0.57;;
65018;SDS011;66069;51.164;-114.452;2024-03-02T01:25:56;0.65;;;0.40;;
65018;SDS011;66069;51.164;-114.452;2024-03-02T01:28:22;0.85;;;0.40;;
65018;SDS011;66069;51.164;-114.452;2024-03-02T01:30:49;1.20;;;0.55;;
65018;SDS011;66069;51.164;-114.452;2024-03-02T01:33:16;1.27;;;0.50;;
65018;SDS011;66069;51.164;-114.452;2024-03-02T01:35:43;1.00;;;0.50;;
65018;SDS011;66069;51.164;-114.452;2024-03-02T01:38:09;0.47;;;0.30;;
65018;SDS011;66069;51.164;-114.452;2024-03-02T01:40:36;0.52;;;0.40;;
65018;SDS011;66069;51.164;-114.452;2024-03-02T01:43:07;0.50;;;0.40;;
65018;SDS011;66069;51.164;-114.452;2024-03-02T01:45:34;0.52;;;0.40;;
65018;SDS011;66069;51.164;-114.452;2024-03-02T01:48:02;0.75;;;0.40;;
65018;SDS011;66069;51.164;-114.452;2024-03-02T01:50:32;0.80;;;0.40;;
65018;SDS011;66069;51.164;-114.452;2024-03-02T01:52:59;0.63;;;0.40;;
65018;SDS011;66069;51.164;-114.452;2024-03-02T01:55:28;1.40;;;0.63;;
65018;SDS011;66069;51.164;-114.452;2024-03-02T01:57:58;1.13;;;0.60;;
65018;SDS011;66069;51.164;-114.452;2024-03-02T02:00:24;0.95;;;0.40;;
65018;SDS011;66069;51.164;-114.452;2024-03-02T02:02:51;0.50;;;0.35;;
65018;SDS011;66069;51.164;-114.452;2024-03-02T02:05:18;0.88;;;0.47;;
65018;SDS011;66069;51.164;-114.452;2024-03-02T02:07:44;0.77;;;0.38;;
65018;SDS011;66069;51.164;-114.452;2024-03-02T02:10:11;0.43;;;0.30;;
65018;SDS011;66069;51.164;-114.452;2024-03-02T02:12:37;0.95;;;0.50;;
65018;SDS011;66069;51.164;-114.452;2024-03-02T02:15:04;0.60;;;0.40;;
65018;SDS011;66069;51.164;-114.452;2024-03-02T02:17:51;0.57;;;0.32;;
65018;SDS011;66069;51.164;-114.452;2024-03-02T02:20:17;0.77;;;0.40;;
65018;SDS011;66069;51.164;-114.452;2024-03-02T02:25:39;1.10;;;0.52;;
65018;SDS011;66069;51.164;-114.452;2024-03-02T02:28:05;0.88;;;0.50;;
65018;SDS011;66069;51.164;-114.452;2024-03-02T02:30:31;2.28;;;0.63;;
65018;SDS011;66069;51.164;-114.452;2024-03-02T02:32:58;4.88;;;1.00;;
65018;SDS011;66069;51.164;-114.452;2024-03-02T02:35:25;4.22;;;1.08;;
65018;SDS011;66069;51.164;-114.452;2024-03-02T02:37:52;3.53;;;1.17;;
65018;SDS011;66069;51.164;-114.452;2024-03-02T02:40:20;6.70;;;1.30;;
65018;SDS011;66069;51.164;-114.452;2024-03-02T02:42:46;3.83;;;1.13;;
65018;SDS011;66069;51.164;-114.452;2024-03-02T02:45:12;3.53;;;1.05;;
65018;SDS011;66069;51.164;-114.452;2024-03-02T02:47:40;4.00;;;1.50;;
65018;SDS011;66069;51.164;-114.452;2024-03-02T02:50:07;3.78;;;1.15;;
65018;SDS011;66069;51.164;-114.452;2024-03-02T02:52:34;3.45;;;1.25;;
65018;SDS011;66069;51.164;-114.452;2024-03-02T02:55:02;4.53;;;1.20;;
65018;SDS011;66069;51.164;-114.452;2024-03-02T02:57:30;5.35;;;1.10;;
65018;SDS011;66069;51.164;-114.452;2024-03-02T03:00:09;4.47;;;1.80;;
65018;SDS011;66069;51.164;-114.452;2024-03-02T03:02:40;3.85;;;1.13;;
65018;SDS011;66069;51.164;-114.452;2024-03-02T03:05:07;3.10;;;1.17;;
65018;SDS011;66069;51.164;-114.452;2024-03-02T03:07:39;4.72;;;1.67;;
65018;SDS011;66069;51.164;-114.452;2024-03-02T03:10:06;4.43;;;1.23;;
65018;SDS011;66069;51.164;-114.452;2024-03-02T03:12:34;6.78;;;1.40;;
65018;SDS011;66069;51.164;-114.452;2024-03-02T03:15:00;2.83;;;1.08;;
65018;SDS011;66069;51.164;-114.452;2024-03-02T03:17:28;4.78;;;1.23;;
65018;SDS011;66069;51.164;-114.452;2024-03-02T03:19:54;3.47;;;1.20;;
65018;SDS011;66069;51.164;-114.452;2024-03-02T03:22:20;3.90;;;1.10;;
65018;SDS011;66069;51.164;-114.452;2024-03-02T03:24:46;3.70;;;1.23;;
65018;SDS011;66069;51.164;-114.452;2024-03-02T03:27:12;3.17;;;1.00;;
65018;SDS011;66069;51.164;-114.452;2024-03-02T03:29:39;3.67;;;1.20;;
65018;SDS011;66069;51.164;-114.452;2024-03-02T03:32:05;3.38;;;1.00;;
65018;SDS011;66069;51.164;-114.452;2024-03-02T03:34:32;2.67;;;1.10;;
65018;SDS011;66069;51.164;-114.452;2024-03-02T03:36:59;2.40;;;0.98;;
65018;SDS011;66069;51.164;-114.452;2024-03-02T03:39:25;2.53;;;0.88;;
65018;SDS011;66069;51.164;-114.452;2024-03-02T03:41:51;3.92;;;1.02;;
65018;SDS011;66069;51.164;-114.452;2024-03-02T03:44:17;2.50;;;1.00;;
65018;SDS011;66069;51.164;-114.452;2024-03-02T03:46:43;2.53;;;0.98;;
65018;SDS011;66069;51.164;-114.452;2024-03-02T03:49:10;3.17;;;1.00;;
65018;SDS011;66069;51.164;-114.452;2024-03-02T03:51:36;3.08;;;1.38;;
65018;SDS011;66069;51.164;-114.452;2024-03-02T03:54:03;2.35;;;1.05;;
65018;SDS011;66069;51.164;-114.452;2024-03-02T03:56:29;2.20;;;0.90;;
65018;SDS011;66069;51.164;-114.452;2024-03-02T03:58:55;2.45;;;0.80;;
65018;SDS011;66069;51.164;-114.452;2024-03-02T04:01:21;4.70;;;1.10;;
65018;SDS011;66069;51.164;-114.452;2024-03-02T04:03:48;2.03;;;0.70;;
65018;SDS011;66069;51.164;-114.452;2024-03-02T04:06:14;3.65;;;0.88;;
65018;SDS011;66069;51.164;-114.452;2024-03-02T04:08:42;1.65;;;0.80;;
65018;SDS011;66069;51.164;-114.452;2024-03-02T04:11:08;2.33;;;0.88;;
65018;SDS011;66069;51.164;-114.452;2024-03-02T04:13:35;2.67;;;0.90;;
65018;SDS011;66069;51.164;-114.452;2024-03-02T04:16:01;1.80;;;0.80;;
65018;SDS011;66069;51.164;-114.452;2024-03-02T04:18:29;2.53;;;0.90;;
65018;SDS011;66069;51.164;-114.452;2024-03-02T04:20:55;2.13;;;0.80;;
65018;SDS011;66069;51.164;-114.452;2024-03-02T04:23:21;2.70;;;0.88;;
65018;SDS011;66069;51.164;-114.452;2024-03-02T04:25:47;1.88;;;0.68;;
65018;SDS011;66069;51.164;-114.452;2024-03-02T04:28:13;1.08;;;0.60;;
65018;SDS011;66069;51.164;-114.452;2024-03-02T04:30:40;2.38;;;0.80;;
65018;SDS011;66069;51.164;-114.452;2024-03-02T04:33:06;2.90;;;0.73;;
65018;SDS011;66069;51.164;-114.452;2024-03-02T04:35:35;1.77;;;0.90;;
65018;SDS011;66069;51.164;-114.452;2024-03-02T04:38:04;2.70;;;1.00;;
65018;SDS011;66069;51.164;-114.452;2024-03-02T04:40:30;2.65;;;1.48;;
65018;SDS011;66069;51.164;-114.452;2024-03-02T04:42:57;2.03;;;0.82;;
65018;SDS011;66069;51.164;-114.452;2024-03-02T04:45:24;1.45;;;0.68;;
65018;SDS011;66069;51.164;-114.452;2024-03-02T04:47:50;0.93;;;0.60;;
65018;SDS011;66069;51.164;-114.452;2024-03-02T04:50:16;1.90;;;1.00;;
65018;SDS011;66069;51.164;-114.452;2024-03-02T04:52:43;2.00;;;0.90;;
65018;SDS011;66069;51.164;-114.452;2024-03-02T04:55:09;1.65;;;0.60;;
65018;SDS011;66069;51.164;-114.452;2024-03-02T04:57:42;1.58;;;0.60;;
65018;SDS011;66069;51.164;-114.452;2024-03-02T05:00:09;1.80;;;0.90;;
65018;SDS011;66069;51.164;-114.452;2024-03-02T05:02:36;2.05;;;0.70;;
65018;SDS011;66069;51.164;-114.452;2024-03-02T05:05:02;1.70;;;0.60;;
65018;SDS011;66069;51.164;-114.452;2024-03-02T05:07:28;1.80;;;0.85;;
65018;SDS011;66069;51.164;-114.452;2024-03-02T05:09:54;1.95;;;0.90;;
65018;SDS011;66069;51.164;-114.452;2024-03-02T05:12:20;1.42;;;0.65;;
65018;SDS011;66069;51.164;-114.452;2024-03-02T05:14:47;1.63;;;0.68;;
65018;SDS011;66069;51.164;-114.452;2024-03-02T05:17:14;1.20;;;0.60;;
65018;SDS011;66069;51.164;-114.452;2024-03-02T05:19:40;1.55;;;0.70;;
65018;SDS011;66069;51.164;-114.452;2024-03-02T05:22:06;1.98;;;0.73;;
65018;SDS011;66069;51.164;-114.452;2024-03-02T05:24:32;1.08;;;0.57;;
65018;SDS011;66069;51.164;-114.452;2024-03-02T05:26:58;1.17;;;0.60;;
65018;SDS011;66069;51.164;-114.452;2024-03-02T05:29:24;2.60;;;0.95;;
65018;SDS011;66069;51.164;-114.452;2024-03-02T05:31:51;1.58;;;0.80;;
65018;SDS011;66069;51.164;-114.452;2024-03-02T05:34:17;1.00;;;0.57;;
65018;SDS011;66069;51.164;-114.452;2024-03-02T05:36:43;1.52;;;0.60;;
65018;SDS011;66069;51.164;-114.452;2024-03-02T05:39:10;1.23;;;0.70;;
65018;SDS011;66069;51.164;-114.452;2024-03-02T05:41:36;1.55;;;0.60;;
65018;SDS011;66069;51.164;-114.452;2024-03-02T05:44:03;1.70;;;0.60;;
65018;SDS011;66069;51.164;-114.452;2024-03-02T05:46:30;1.75;;;0.60;;
65018;SDS011;66069;51.164;-114.452;2024-03-02T05:48:56;0.93;;;0.50;;
65018;SDS011;66069;51.164;-114.452;2024-03-02T05:51:22;1.20;;;0.55;;
65018;SDS011;66069;51.164;-114.452;2024-03-02T05:53:48;2.03;;;0.70;;
65018;SDS011;66069;51.164;-114.452;2024-03-02T05:56:15;1.25;;;0.50;;
65018;SDS011;66069;51.164;-114.452;2024-03-02T05:58:42;1.77;;;0.70;;
65018;SDS011;66069;51.164;-114.452;2024-03-02T06:01:17;0.88;;;0.40;;
65018;SDS011;66069;51.164;-114.452;2024-03-02T06:03:43;1.73;;;0.70;;
65018;SDS011;66069;51.164;-114.452;2024-03-02T06:06:10;1.85;;;0.77;;
65018;SDS011;66069;51.164;-114.452;2024-03-02T06:08:36;1.73;;;0.70;;
65018;SDS011;66069;51.164;-114.452;2024-03-02T06:11:02;1.92;;;0.70;;
65018;SDS011;66069;51.164;-114.452;2024-03-02T06:13:29;1.75;;;0.50;;
65018;SDS011;66069;51.164;-114.452;2024-03-02T06:15:55;0.80;;;0.50;;
65018;SDS011;66069;51.164;-114.452;2024-03-02T06:18:21;1.15;;;0.50;;
65018;SDS011;66069;51.164;-114.452;2024-03-02T06:20:47;1.88;;;0.60;;
65018;SDS011;66069;51.164;-114.452;2024-03-02T06:23:14;1.00;;;0.50;;
65018;SDS011;66069;51.164;-114.452;2024-03-02T06:25:41;2.05;;;0.85;;
65018;SDS011;66069;51.164;-114.452;2024-03-02T06:28:07;1.38;;;0.45;;
65018;SDS011;66069;51.164;-114.452;2024-03-02T06:30:33;1.50;;;0.60;;
65018;SDS011;66069;51.164;-114.452;2024-03-02T06:32:59;1.58;;;0.70;;
65018;SDS011;66069;51.164;-114.452;2024-03-02T06:35:26;0.85;;;0.45;;
65018;SDS011;66069;51.164;-114.452;2024-03-02T06:37:52;1.33;;;0.40;;
65018;SDS011;66069;51.164;-114.452;2024-03-02T06:40:18;1.85;;;0.73;;
65018;SDS011;66069;51.164;-114.452;2024-03-02T06:42:44;1.40;;;0.60;;
65018;SDS011;66069;51.164;-114.452;2024-03-02T06:45:10;0.77;;;0.43;;
65018;SDS011;66069;51.164;-114.452;2024-03-02T06:47:37;1.45;;;0.63;;
65018;SDS011;66069;51.164;-114.452;2024-03-02T06:50:03;1.50;;;0.73;;
65018;SDS011;66069;51.164;-114.452;2024-03-02T06:52:29;1.52;;;0.57;;
65018;SDS011;66069;51.164;-114.452;2024-03-02T06:54:56;1.48;;;0.65;;
65018;SDS011;66069;51.164;-114.452;2024-03-02T06:57:22;1.13;;;0.50;;
65018;SDS011;66069;51.164;-114.452;2024-03-02T06:59:50;1.38;;;0.73;;
65018;SDS011;66069;51.164;-114.452;2024-03-02T07:02:16;1.23;;;0.50;;
65018;SDS011;66069;51.164;-114.452;2024-03-02T07:04:43;1.00;;;0.40;;
65018;SDS011;66069;51.164;-114.452;2024-03-02T07:07:10;1.02;;;0.60;;
65018;SDS011;66069;51.164;-114.452;2024-03-02T07:09:36;1.63;;;0.60;;
65018;SDS011;66069;51.164;-114.452;2024-03-02T07:12:03;0.98;;;0.50;;
65018;SDS011;66069;51.164;-114.452;2024-03-02T07:14:29;1.67;;;0.90;;
65018;SDS011;66069;51.164;-114.452;2024-03-02T07:17:14;1.45;;;0.60;;
65018;SDS011;66069;51.164;-114.452;2024-03-02T07:19:40;1.65;;;0.60;;
65018;SDS011;66069;51.164;-114.452;2024-03-02T07:22:06;1.77;;;0.70;;
65018;SDS011;66069;51.164;-114.452;2024-03-02T07:24:40;1.38;;;0.57;;
65018;SDS011;66069;51.164;-114.452;2024-03-02T07:27:07;2.22;;;0.65;;
65018;SDS011;66069;51.164;-114.452;2024-03-02T07:29:37;1.58;;;0.60;;
65018;SDS011;66069;51.164;-114.452;2024-03-02T07:32:04;1.30;;;0.52;;
65018;SDS011;66069;51.164;-114.452;2024-03-02T07:34:31;1.33;;;0.50;;
65018;SDS011;66069;51.164;-114.452;2024-03-02T07:36:58;1.27;;;0.50;;
65018;SDS011;66069;51.164;-114.452;2024-03-02T07:39:24;1.00;;;0.50;;
65018;SDS011;66069;51.164;-114.452;2024-03-02T07:41:51;1.88;;;0.80;;
65018;SDS011;66069;51.164;-114.452;2024-03-02T07:44:17;1.40;;;0.50;;
65018;SDS011;66069;51.164;-114.452;2024-03-02T07:46:44;1.13;;;0.50;;
65018;SDS011;66069;51.164;-114.452;2024-03-02T07:49:18;1.55;;;0.68;;
65018;SDS011;66069;51.164;-114.452;2024-03-02T07:51:44;1.42;;;0.55;;
65018;SDS011;66069;51.164;-114.452;2024-03-02T07:54:10;1.40;;;0.70;;
65018;SDS011;66069;51.164;-114.452;2024-03-02T07:56:37;1.50;;;0.70;;
65018;SDS011;66069;51.164;-114.452;2024-03-02T07:59:03;1.60;;;0.60;;
65018;SDS011;66069;51.164;-114.452;2024-03-02T08:01:30;1.00;;;0.40;;
65018;SDS011;66069;51.164;-114.452;2024-03-02T08:03:58;1.60;;;0.80;;
65018;SDS011;66069;51.164;-114.452;2024-03-02T08:06:28;1.20;;;0.50;;
65018;SDS011;66069;51.164;-114.452;2024-03-02T08:08:54;1.77;;;0.68;;
65018;SDS011;66069;51.164;-114.452;2024-03-02T08:11:21;1.40;;;0.57;;
65018;SDS011;66069;51.164;-114.452;2024-03-02T08:13:48;1.05;;;0.52;;
65018;SDS011;66069;51.164;-114.452;2024-03-02T08:16:17;1.10;;;0.50;;
65018;SDS011;66069;51.164;-114.452;2024-03-02T08:18:47;1.02;;;0.50;;
65018;SDS011;66069;51.164;-114.452;2024-03-02T08:21:14;0.82;;;0.55;;
65018;SDS011;66069;51.164;-114.452;2024-03-02T08:23:41;1.27;;;0.50;;
65018;SDS011;66069;51.164;-114.452;2024-03-02T08:26:09;0.60;;;0.40;;
65018;SDS011;66069;51.164;-114.452;2024-03-02T08:28:35;1.45;;;0.50;;
65018;SDS011;66069;51.164;-114.452;2024-03-02T08:31:07;1.30;;;0.50;;
65018;SDS011;66069;51.164;-114.452;2024-03-02T08:33:34;0.77;;;0.40;;
65018;SDS011;66069;51.164;-114.452;2024-03-02T08:36:01;1.08;;;0.60;;
65018;SDS011;66069;51.164;-114.452;2024-03-02T08:38:27;1.17;;;0.60;;
65018;SDS011;66069;51.164;-114.452;2024-03-02T08:40:54;1.65;;;0.60;;
65018;SDS011;66069;51.164;-114.452;2024-03-02T08:43:20;1.08;;;0.50;;
65018;SDS011;66069;51.164;-114.452;2024-03-02T08:45:48;1.30;;;0.60;;
65018;SDS011;66069;51.164;-114.452;2024-03-02T08:48:14;0.45;;;0.32;;
65018;SDS011;66069;51.164;-114.452;2024-03-02T08:50:40;2.03;;;0.63;;
65018;SDS011;66069;51.164;-114.452;2024-03-02T08:53:07;1.30;;;0.52;;
65018;SDS011;66069;51.164;-114.452;2024-03-02T08:55:33;1.00;;;0.55;;
65018;SDS011;66069;51.164;-114.452;2024-03-02T08:57:59;1.15;;;0.55;;
65018;SDS011;66069;51.164;-114.452;2024-03-02T09:00:25;0.88;;;0.40;;
65018;SDS011;66069;51.164;-114.452;2024-03-02T09:02:51;1.33;;;0.60;;
65018;SDS011;66069;51.164;-114.452;2024-03-02T09:05:18;1.30;;;0.65;;
65018;SDS011;66069;51.164;-114.452;2024-03-02T09:07:44;1.80;;;0.52;;
65018;SDS011;66069;51.164;-114.452;2024-03-02T09:10:11;1.05;;;0.50;;
65018;SDS011;66069;51.164;-114.452;2024-03-02T09:12:37;1.15;;;0.50;;
65018;SDS011;66069;51.164;-114.452;2024-03-02T09:15:04;1.25;;;0.43;;
65018;SDS011;66069;51.164;-114.452;2024-03-02T09:17:34;0.95;;;0.50;;
65018;SDS011;66069;51.164;-114.452;2024-03-02T09:20:00;1.00;;;0.52;;
65018;SDS011;66069;51.164;-114.452;2024-03-02T09:22:26;1.65;;;0.70;;
65018;SDS011;66069;51.164;-114.452;2024-03-02T09:24:52;1.50;;;0.60;;
65018;SDS011;66069;51.164;-114.452;2024-03-02T09:27:18;1.05;;;0.52;;
65018;SDS011;66069;51.164;-114.452;2024-03-02T09:29:45;0.68;;;0.40;;
65018;SDS011;66069;51.164;-114.452;2024-03-02T09:32:14;0.57;;;0.40;;
65018;SDS011;66069;51.164;-114.452;2024-03-02T09:34:41;0.43;;;0.32;;
65018;SDS011;66069;51.164;-114.452;2024-03-02T09:37:08;1.15;;;0.60;;
65018;SDS011;66069;51.164;-114.452;2024-03-02T09:39:34;1.85;;;0.60;;
65018;SDS011;66069;51.164;-114.452;2024-03-02T09:42:00;0.77;;;0.43;;
65018;SDS011;66069;51.164;-114.452;2024-03-02T09:44:29;1.08;;;0.43;;
65018;SDS011;66069;51.164;-114.452;2024-03-02T09:46:55;0.90;;;0.50;;
65018;SDS011;66069;51.164;-114.452;2024-03-02T09:49:22;0.98;;;0.40;;
65018;SDS011;66069;51.164;-114.452;2024-03-02T09:51:49;1.85;;;0.68;;
65018;SDS011;66069;51.164;-114.452;2024-03-02T09:54:15;1.08;;;0.55;;
65018;SDS011;66069;51.164;-114.452;2024-03-02T09:56:42;1.13;;;0.50;;
65018;SDS011;66069;51.164;-114.452;2024-03-02T09:59:09;0.98;;;0.40;;
65018;SDS011;66069;51.164;-114.452;2024-03-02T10:01:35;0.82;;;0.40;;
65018;SDS011;66069;51.164;-114.452;2024-03-02T10:04:02;0.70;;;0.40;;
65018;SDS011;66069;51.164;-114.452;2024-03-02T10:06:28;0.45;;;0.30;;
65018;SDS011;66069;51.164;-114.452;2024-03-02T10:08:55;0.85;;;0.40;;
65018;SDS011;66069;51.164;-114.452;2024-03-02T10:14:04;1.42;;;0.65;;
65018;SDS011;66069;51.164;-114.452;2024-03-02T10:16:35;2.78;;;0.70;;
65018;SDS011;66069;51.164;-114.452;2024-03-02T10:19:20;1.55;;;0.40;;
65018;SDS011;66069;51.164;-114.452;2024-03-02T10:21:51;0.85;;;0.45;;
65018;SDS011;66069;51.164;-114.452;2024-03-02T10:26:45;1.02;;;0.47;;
65018;SDS011;66069;51.164;-114.452;2024-03-02T10:29:11;1.02;;;0.55;;
65018;SDS011;66069;51.164;-114.452;2024-03-02T10:31:41;1.35;;;0.50;;
65018;SDS011;66069;51.164;-114.452;2024-03-02T10:36:35;0.60;;;0.40;;
65018;SDS011;66069;51.164;-114.452;2024-03-02T10:39:03;0.90;;;0.50;;
65018;SDS011;66069;51.164;-114.452;2024-03-02T10:41:32;0.52;;;0.40;;
65018;SDS011;66069;51.164;-114.452;2024-03-02T10:44:03;0.95;;;0.50;;
65018;SDS011;66069;51.164;-114.452;2024-03-02T10:46:30;1.45;;;0.45;;
65018;SDS011;66069;51.164;-114.452;2024-03-02T10:48:59;0.75;;;0.40;;
65018;SDS011;66069;51.164;-114.452;2024-03-02T10:51:30;1.00;;;0.47;;
65018;SDS011;66069;51.164;-114.452;2024-03-02T10:54:00;1.63;;;0.50;;
65018;SDS011;66069;51.164;-114.452;2024-03-02T10:56:31;1.27;;;0.73;;
65018;SDS011;66069;51.164;-114.452;2024-03-02T11:01:53;1.08;;;0.57;;
65018;SDS011;66069;51.164;-114.452;2024-03-02T11:04:24;0.88;;;0.60;;
65018;SDS011;66069;51.164;-114.452;2024-03-02T11:06:52;0.85;;;0.60;;
65018;SDS011;66069;51.164;-114.452;2024-03-02T11:09:25;0.68;;;0.32;;
65018;SDS011;66069;51.164;-114.452;2024-03-02T11:12:19;0.90;;;0.40;;
65018;SDS011;66069;51.164;-114.452;2024-03-02T11:14:44;0.88;;;0.40;;
65018;SDS011;66069;51.164;-114.452;2024-03-02T11:17:14;0.95;;;0.40;;
65018;SDS011;66069;51.164;-114.452;2024-03-02T11:19:41;0.68;;;0.40;;
65018;SDS011;66069;51.164;-114.452;2024-03-02T11:22:08;0.60;;;0.35;;
65018;SDS011;66069;51.164;-114.452;2024-03-02T11:24:36;0.93;;;0.47;;
65018;SDS011;66069;51.164;-114.452;2024-03-02T11:27:03;0.82;;;0.40;;
65018;SDS011;66069;51.164;-114.452;2024-03-02T11:34:33;0.77;;;0.40;;
65018;SDS011;66069;51.164;-114.452;2024-03-02T11:37:03;0.73;;;0.40;;
65018;SDS011;66069;51.164;-114.452;2024-03-02T11:39:30;0.95;;;0.57;;
65018;SDS011;66069;51.164;-114.452;2024-03-02T11:41:56;0.80;;;0.40;;
65018;SDS011;66069;51.164;-114.452;2024-03-02T11:44:27;0.32;;;0.25;;
65018;SDS011;66069;51.164;-114.452;2024-03-02T11:47:00;0.93;;;0.40;;
65018;SDS011;66069;51.164;-114.452;2024-03-02T11:49:37;0.77;;;0.40;;
65018;SDS011;66069;51.164;-114.452;2024-03-02T11:52:04;0.90;;;0.40;;
65018;SDS011;66069;51.164;-114.452;2024-03-02T11:57:02;0.55;;;0.35;;
65018;SDS011;66069;51.164;-114.452;2024-03-02T11:59:29;0.65;;;0.30;;
65018;SDS011;66069;51.164;-114.452;2024-03-02T12:01:55;1.10;;;0.40;;
65018;SDS011;66069;51.164;-114.452;2024-03-02T12:04:23;0.77;;;0.40;;
65018;SDS011;66069;51.164;-114.452;2024-03-02T12:06:56;0.93;;;0.50;;
65018;SDS011;66069;51.164;-114.452;2024-03-02T12:09:27;1.30;;;0.60;;
65018;SDS011;66069;51.164;-114.452;2024-03-02T12:12:06;0.77;;;0.35;;
65018;SDS011;66069;51.164;-114.452;2024-03-02T12:14:35;0.45;;;0.30;;
65018;SDS011;66069;51.164;-114.452;2024-03-02T12:17:03;0.77;;;0.40;;
65018;SDS011;66069;51.164;-114.452;2024-03-02T12:19:31;0.32;;;0.30;;
65018;SDS011;66069;51.164;-114.452;2024-03-02T12:21:58;0.75;;;0.40;;
65018;SDS011;66069;51.164;-114.452;2024-03-02T12:24:29;0.88;;;0.40;;
65018;SDS011;66069;51.164;-114.452;2024-03-02T12:26:55;0.93;;;0.32;;
65018;SDS011;66069;51.164;-114.452;2024-03-02T12:29:23;0.43;;;0.30;;
65018;SDS011;66069;51.164;-114.452;2024-03-02T12:31:50;0.70;;;0.32;;
65018;SDS011;66069;51.164;-114.452;2024-03-02T12:36:46;0.40;;;0.30;;
65018;SDS011;66069;51.164;-114.452;2024-03-02T12:39:18;0.93;;;0.40;;
65018;SDS011;66069;51.164;-114.452;2024-03-02T12:41:48;0.52;;;0.20;;
65018;SDS011;66069;51.164;-114.452;2024-03-02T12:44:19;0.20;;;0.20;;
65018;SDS011;66069;51.164;-114.452;2024-03-02T12:46:46;0.40;;;0.30;;
65018;SDS011;66069;51.164;-114.452;2024-03-02T12:49:13;0.60;;;0.30;;
65018;SDS011;66069;51.164;-114.452;2024-03-02T12:51:45;0.70;;;0.40;;
65018;SDS011;66069;51.164;-114.452;2024-03-02T12:54:16;0.52;;;0.30;;
65018;SDS011;66069;51.164;-114.452;2024-03-02T12:56:43;0.30;;;0.20;;
65018;SDS011;66069;51.164;-114.452;2024-03-02T12:59:21;0.43;;;0.30;;
65018;SDS011;66069;51.164;-114.452;2024-03-02T13:01:54;0.47;;;0.30;;
65018;SDS011;66069;51.164;-114.452;2024-03-02T13:04:26;0.50;;;0.30;;
65018;SDS011;66069;51.164;-114.452;2024-03-02T13:06:54;0.22;;;0.20;;
65018;SDS011;66069;51.164;-114.452;2024-03-02T13:09:23;0.65;;;0.30;;
65018;SDS011;66069;51.164;-114.452;2024-03-02T13:11:49;0.52;;;0.30;;
65018;SDS011;66069;51.164;-114.452;2024-03-02T13:14:16;0.70;;;0.40;;
65018;SDS011;66069;51.164;-114.452;2024-03-02T13:16:42;0.28;;;0.28;;
65018;SDS011;66069;51.164;-114.452;2024-03-02T13:19:13;0.82;;;0.35;;
65018;SDS011;66069;51.164;-114.452;2024-03-02T13:21:39;0.40;;;0.30;;
65018;SDS011;66069;51.164;-114.452;2024-03-02T13:24:06;0.30;;;0.25;;
65018;SDS011;66069;51.164;-114.452;2024-03-02T13:26:32;0.50;;;0.30;;
65018;SDS011;66069;51.164;-114.452;2024-03-02T13:28:58;0.32;;;0.30;;
65018;SDS011;66069;51.164;-114.452;2024-03-02T13:31:24;0.80;;;0.40;;
65018;SDS011;66069;51.164;-114.452;2024-03-02T13:33:51;0.35;;;0.30;;
65018;SDS011;66069;51.164;-114.452;2024-03-02T13:36:17;0.50;;;0.30;;
65018;SDS011;66069;51.164;-114.452;2024-03-02T13:38:44;0.95;;;0.40;;
65018;SDS011;66069;51.164;-114.452;2024-03-02T13:41:11;0.90;;;0.50;;
65018;SDS011;66069;51.164;-114.452;2024-03-02T13:43:37;0.45;;;0.20;;
65018;SDS011;66069;51.164;-114.452;2024-03-02T13:46:04;0.43;;;0.30;;
65018;SDS011;66069;51.164;-114.452;2024-03-02T13:48:31;0.47;;;0.30;;
65018;SDS011;66069;51.164;-114.452;2024-03-02T13:50:57;0.47;;;0.30;;
65018;SDS011;66069;51.164;-114.452;2024-03-02T13:53:24;0.57;;;0.32;;
65018;SDS011;66069;51.164;-114.452;2024-03-02T13:55:50;0.32;;;0.25;;
65018;SDS011;66069;51.164;-114.452;2024-03-02T13:58:16;0.63;;;0.30;;
65018;SDS011;66069;51.164;-114.452;2024-03-02T14:00:42;0.35;;;0.25;;
65018;SDS011;66069;51.164;-114.452;2024-03-02T14:03:10;0.30;;;0.20;;
65018;SDS011;66069;51.164;-114.452;2024-03-02T14:05:37;0.50;;;0.25;;
65018;SDS011;66069;51.164;-114.452;2024-03-02T14:08:03;0.50;;;0.30;;
65018;SDS011;66069;51.164;-114.452;2024-03-02T14:10:30;0.50;;;0.30;;
65018;SDS011;66069;51.164;-114.452;2024-03-02T14:12:56;0.90;;;0.40;;
65018;SDS011;66069;51.164;-114.452;2024-03-02T14:15:22;0.43;;;0.30;;
65018;SDS011;66069;51.164;-114.452;2024-03-02T14:17:49;0.50;;;0.30;;
65018;SDS011;66069;51.164;-114.452;2024-03-02T14:20:15;0.22;;;0.20;;
65018;SDS011;66069;51.164;-114.452;2024-03-02T14:22:47;0.63;;;0.35;;
65018;SDS011;66069;51.164;-114.452;2024-03-02T14:25:14;0.88;;;0.30;;
65018;SDS011;66069;51.164;-114.452;2024-03-02T14:27:40;0.70;;;0.43;;
65018;SDS011;66069;51.164;-114.452;2024-03-02T14:30:07;0.70;;;0.30;;
65018;SDS011;66069;51.164;-114.452;2024-03-02T14:32:33;0.25;;;0.20;;
65018;SDS011;66069;51.164;-114.452;2024-03-02T14:34:59;0.25;;;0.20;;
65018;SDS011;66069;51.164;-114.452;2024-03-02T14:37:26;0.70;;;0.30;;